Time;durP1;ratioP1;P1;durP2;ratioP2;P2;SDS_P1;SDS_P2;PMS_P1;PMS_P2;Temp;Humidity;BMP_temperature;BMP_pressure;BME280_temperature;BME280_humidity;BME280_pressure;Samples;Min_cycle;Max_cycle;Signal;HPM_P1;HPM_P2
2021/08/28 00:01:51;;;;;;;10.55;5.40;;;;;;;;;;5100477;28;20044;-84
2021/08/28 00:04:18;;;;;;;10.25;6.03;;;;;;;;;;5101533;28;20131;-84
2021/08/28 00:06:45;;;;;;;8.45;5.57;;;;;;;;;;5098869;28;20052;-83
2021/08/28 00:09:12;;;;;;;12.27;5.80;;;;;;;;;;5094950;28;20048;-81
2021/08/28 00:11:39;;;;;;;11.27;6.45;;;;;;;;;;5095034;28;20157;-83
2021/08/28 00:14:12;;;;;;;15.18;6.80;;;;;;;;;;5092871;28;20047;-80
2021/08/28 00:16:38;;;;;;;13.95;7.85;;;;;;;;;;5094028;28;20044;-80
2021/08/28 00:19:04;;;;;;;11.43;7.50;;;;;;;;;;5093489;28;20415;-81
2021/08/28 00:21:34;;;;;;;14.32;8.13;;;;;;;;;;5094834;28;20371;-81
2021/08/28 00:24:01;;;;;;;12.45;8.15;;;;;;;;;;5096214;28;20052;-81
2021/08/28 00:26:31;;;;;;;16.73;7.88;;;;;;;;;;5095151;28;20056;-82
2021/08/28 00:28:57;;;;;;;13.82;8.43;;;;;;;;;;5094530;28;20147;-80
2021/08/28 00:31:24;;;;;;;15.23;9.50;;;;;;;;;;5094127;28;20040;-81
2021/08/28 00:33:50;;;;;;;22.00;9.77;;;;;;;;;;5092654;28;20176;-81
2021/08/28 00:36:17;;;;;;;16.10;10.10;;;;;;;;;;5094572;28;20079;-81
2021/08/28 00:38:47;;;;;;;15.70;9.82;;;;;;;;;;5093860;28;20396;-81
2021/08/28 00:41:14;;;;;;;15.82;10.18;;;;;;;;;;5093345;28;20052;-81
2021/08/28 00:43:41;;;;;;;16.25;9.68;;;;;;;;;;5092656;28;20125;-81
2021/08/28 00:46:08;;;;;;;15.65;10.40;;;;;;;;;;5093967;28;20066;-81
2021/08/28 00:48:35;;;;;;;15.25;9.82;;;;;;;;;;5094529;28;20155;-81
2021/08/28 00:51:01;;;;;;;16.45;10.30;;;;;;;;;;5098858;28;20083;-81
2021/08/28 00:53:32;;;;;;;20.30;9.40;;;;;;;;;;5107609;28;20048;-81
2021/08/28 00:55:59;;;;;;;22.35;10.52;;;;;;;;;;5105823;28;20135;-82
2021/08/28 00:58:25;;;;;;;15.48;9.57;;;;;;;;;;5095543;28;20055;-82
2021/08/28 01:00:52;;;;;;;21.40;9.55;;;;;;;;;;5094823;28;20059;-82
2021/08/28 01:03:21;;;;;;;14.63;9.68;;;;;;;;;;5091690;28;20044;-81
2021/08/28 01:06:06;;;;;;;19.60;9.63;;;;;;;;;;5094642;28;20044;-81
2021/08/28 01:08:40;;;;;;;17.15;10.18;;;;;;;;;;5093991;28;20052;-80
2021/08/28 01:11:36;;;;;;;18.45;11.07;;;;;;;;;;5091597;28;20048;-81
2021/08/28 01:14:06;;;;;;;22.55;10.75;;;;;;;;;;5081060;28;20040;-81
2021/08/28 01:16:33;;;;;;;18.67;11.07;;;;;;;;;;5094145;28;20176;-81
2021/08/28 01:19:00;;;;;;;20.17;11.60;;;;;;;;;;5092902;28;20075;-81
2021/08/28 01:21:31;;;;;;;16.77;10.75;;;;;;;;;;5092505;28;20147;-81
2021/08/28 01:24:00;;;;;;;22.73;12.10;;;;;;;;;;5093570;28;20078;-81
2021/08/28 01:26:30;;;;;;;14.63;11.02;;;;;;;;;;5111084;28;20036;-82
2021/08/28 01:29:08;;;;;;;16.60;10.77;;;;;;;;;;5110968;28;20104;-83
2021/08/28 01:31:35;;;;;;;16.30;11.20;;;;;;;;;;5110767;28;20059;-83
2021/08/28 01:34:02;;;;;;;19.48;10.68;;;;;;;;;;5097078;28;20113;-83
2021/08/28 01:36:29;;;;;;;15.25;10.32;;;;;;;;;;5097372;28;20121;-82
2021/08/28 01:38:59;;;;;;;20.38;11.20;;;;;;;;;;5103162;28;20067;-82
2021/08/28 01:41:27;;;;;;;17.70;10.60;;;;;;;;;;5111809;28;20036;-81
2021/08/28 01:43:54;;;;;;;12.82;9.48;;;;;;;;;;5097917;28;20397;-82
2021/08/28 01:46:22;;;;;;;17.27;9.85;;;;;;;;;;5098073;28;20131;-82
2021/08/28 01:48:48;;;;;;;15.75;9.30;;;;;;;;;;5103533;28;20051;-81
2021/08/28 01:51:15;;;;;;;19.73;9.07;;;;;;;;;;5108782;28;20071;-82
2021/08/28 01:53:45;;;;;;;16.38;8.77;;;;;;;;;;5106992;28;20067;-82
2021/08/28 01:56:12;;;;;;;16.23;9.38;;;;;;;;;;5102279;28;20047;-83
2021/08/28 01:58:39;;;;;;;13.88;10.38;;;;;;;;;;5100283;28;20047;-82
2021/08/28 02:01:05;;;;;;;17.30;10.32;;;;;;;;;;5099641;28;20116;-82
2021/08/28 02:03:32;;;;;;;15.75;10.25;;;;;;;;;;5098959;28;20221;-83
2021/08/28 02:06:03;;;;;;;11.88;8.77;;;;;;;;;;5132948;27;20109;-83
2021/08/28 02:08:39;;;;;;;11.90;8.20;;;;;;;;;;5099532;28;20126;-83
2021/08/28 02:11:14;;;;;;;11.32;8.55;;;;;;;;;;5104992;28;20052;-82
2021/08/28 02:13:43;;;;;;;16.63;9.25;;;;;;;;;;5113599;28;20062;-82
2021/08/28 02:16:14;;;;;;;16.10;7.60;;;;;;;;;;5150011;27;20040;-82
2021/08/28 02:18:41;;;;;;;12.95;7.97;;;;;;;;;;5115420;28;20075;-82
2021/08/28 02:21:08;;;;;;;15.38;8.68;;;;;;;;;;5103562;28;20063;-83
2021/08/28 02:23:58;;;;;;;15.68;8.73;;;;;;;;;;5135728;27;20083;-83
2021/08/28 02:26:29;;;;;;;13.38;8.80;;;;;;;;;;5103055;28;20359;-83
2021/08/28 02:29:00;;;;;;;12.10;8.57;;;;;;;;;;5103405;28;20386;-83
2021/08/28 02:31:30;;;;;;;12.68;8.73;;;;;;;;;;5138567;27;20394;-83
2021/08/28 02:33:57;;;;;;;11.05;8.43;;;;;;;;;;5103100;28;20574;-83
2021/08/28 02:36:24;;;;;;;10.25;7.43;;;;;;;;;;5105188;28;20063;-83
2021/08/28 02:38:52;;;;;;;10.10;6.85;;;;;;;;;;5137264;27;20071;-83
2021/08/28 02:41:20;;;;;;;9.90;6.82;;;;;;;;;;5104039;28;20097;-83
2021/08/28 02:43:47;;;;;;;10.25;7.57;;;;;;;;;;5103590;28;20105;-83
2021/08/28 02:46:14;;;;;;;13.60;7.55;;;;;;;;;;5138333;27;20087;-83
2021/08/28 02:48:42;;;;;;;11.88;7.38;;;;;;;;;;5104718;28;20048;-83
2021/08/28 02:51:10;;;;;;;12.55;7.47;;;;;;;;;;5103595;28;20055;-83
2021/08/28 02:53:42;;;;;;;11.13;7.55;;;;;;;;;;5103288;28;20131;-83
2021/08/28 02:56:19;;;;;;;10.77;8.27;;;;;;;;;;5102720;28;20048;-83
2021/08/28 02:58:46;;;;;;;15.52;9.25;;;;;;;;;;5136744;27;20060;-83
2021/08/28 03:01:12;;;;;;;14.73;8.75;;;;;;;;;;5103241;28;20048;-82
2021/08/28 03:03:40;;;;;;;14.27;10.27;;;;;;;;;;5111923;28;20035;-82
2021/08/28 03:06:07;;;;;;;14.75;10.57;;;;;;;;;;5117881;28;20044;-82
2021/08/28 03:08:34;;;;;;;15.73;11.10;;;;;;;;;;5115714;28;20055;-84
2021/08/28 03:11:26;;;;;;;16.52;11.68;;;;;;;;;;5112712;28;20074;-84
2021/08/28 03:13:52;;;;;;;14.80;10.88;;;;;;;;;;5106260;28;20289;-84
2021/08/28 03:16:20;;;;;;;19.02;11.23;;;;;;;;;;5105424;28;20148;-84
2021/08/28 03:19:09;;;;;;;16.13;10.82;;;;;;;;;;5104590;28;20303;-84
2021/08/28 03:21:38;;;;;;;18.77;11.48;;;;;;;;;;5103535;28;20052;-83
2021/08/28 03:24:05;;;;;;;15.50;10.68;;;;;;;;;;5102839;28;20466;-83
2021/08/28 03:26:45;;;;;;;17.27;11.23;;;;;;;;;;5103216;28;20044;-83
2021/08/28 03:29:12;;;;;;;17.77;11.20;;;;;;;;;;5103485;28;20044;-83
2021/08/28 03:31:39;;;;;;;18.27;9.93;;;;;;;;;;5113700;28;20098;-83
2021/08/28 03:34:12;;;;;;;14.82;9.80;;;;;;;;;;5113558;28;20109;-83
2021/08/28 03:36:39;;;;;;;15.80;9.95;;;;;;;;;;5107351;28;20135;-83
2021/08/28 03:39:05;;;;;;;15.15;9.13;;;;;;;;;;5101975;28;20135;-83
2021/08/28 03:41:32;;;;;;;16.25;9.30;;;;;;;;;;5100615;28;20093;-83
2021/08/28 03:44:01;;;;;;;12.38;8.48;;;;;;;;;;5102651;28;20055;-82
2021/08/28 03:46:30;;;;;;;13.95;8.73;;;;;;;;;;5104963;28;20127;-82
2021/08/28 03:48:57;;;;;;;16.80;9.05;;;;;;;;;;5101286;28;20056;-82
2021/08/28 03:51:27;;;;;;;13.48;9.18;;;;;;;;;;5100452;28;20058;-82
2021/08/28 03:53:53;;;;;;;14.45;8.07;;;;;;;;;;5102024;28;20098;-82
2021/08/28 03:56:19;;;;;;;11.35;7.93;;;;;;;;;;5135316;27;20109;-81
2021/08/28 03:58:55;;;;;;;14.15;8.52;;;;;;;;;;5100570;28;20055;-82
2021/08/28 04:01:22;;;;;;;15.95;8.40;;;;;;;;;;5099741;28;20071;-80
2021/08/28 04:03:49;;;;;;;11.63;7.50;;;;;;;;;;5097867;28;20048;-80
2021/08/28 04:06:15;;;;;;;12.25;8.30;;;;;;;;;;5099136;28;20068;-80
2021/08/28 04:08:46;;;;;;;12.60;7.45;;;;;;;;;;5094423;28;20409;-80
2021/08/28 04:11:13;;;;;;;12.70;8.05;;;;;;;;;;5096912;28;20073;-80
2021/08/28 04:13:43;;;;;;;14.52;8.60;;;;;;;;;;5096889;28;20125;-80
2021/08/28 04:16:10;;;;;;;15.18;8.68;;;;;;;;;;5098785;28;20044;-80
2021/08/28 04:18:36;;;;;;;13.88;9.60;;;;;;;;;;5098980;28;20379;-80
2021/08/28 04:21:09;;;;;;;12.20;9.18;;;;;;;;;;5098504;28;20048;-81
2021/08/28 04:23:36;;;;;;;15.57;9.50;;;;;;;;;;5097481;28;20048;-81
2021/08/28 04:26:05;;;;;;;15.95;9.98;;;;;;;;;;5098898;28;20056;-81
2021/08/28 04:28:32;;;;;;;15.05;9.90;;;;;;;;;;5097794;28;20400;-81
2021/08/28 04:30:59;;;;;;;17.83;10.43;;;;;;;;;;5096347;28;20083;-80
2021/08/28 04:33:26;;;;;;;17.10;10.35;;;;;;;;;;5097078;28;20086;-81
2021/08/28 04:35:52;;;;;;;13.73;9.85;;;;;;;;;;5098793;28;20075;-80
2021/08/28 04:38:18;;;;;;;21.10;11.00;;;;;;;;;;5100082;28;20084;-82
2021/08/28 04:40:45;;;;;;;17.00;9.38;;;;;;;;;;5113358;28;20051;-81
2021/08/28 04:43:11;;;;;;;17.17;9.68;;;;;;;;;;5114491;28;20036;-80
2021/08/28 04:45:38;;;;;;;15.95;9.98;;;;;;;;;;5113745;28;20079;-81
2021/08/28 04:48:04;;;;;;;12.93;9.73;;;;;;;;;;5105852;28;20104;-81
2021/08/28 04:50:34;;;;;;;14.75;9.45;;;;;;;;;;5107775;28;20063;-80
2021/08/28 04:53:01;;;;;;;13.25;8.90;;;;;;;;;;5109966;28;20082;-80
2021/08/28 04:55:28;;;;;;;13.75;9.38;;;;;;;;;;5111347;28;20059;-80
2021/08/28 04:57:55;;;;;;;15.95;8.93;;;;;;;;;;5107606;28;20059;-81
2021/08/28 05:00:22;;;;;;;16.25;9.55;;;;;;;;;;5099671;28;20098;-81
2021/08/28 05:02:49;;;;;;;13.10;8.20;;;;;;;;;;5097185;28;20048;-82
2021/08/28 05:05:15;;;;;;;14.07;8.70;;;;;;;;;;5096251;28;20052;-80
2021/08/28 05:07:45;;;;;;;13.07;9.57;;;;;;;;;;5096208;28;20362;-81
2021/08/28 05:10:12;;;;;;;18.60;9.43;;;;;;;;;;5095671;28;20063;-80
2021/08/28 05:12:38;;;;;;;14.02;9.05;;;;;;;;;;5094264;28;20040;-80
2021/08/28 05:15:05;;;;;;;11.23;8.68;;;;;;;;;;5093908;28;20089;-81
2021/08/28 05:17:32;;;;;;;14.45;9.18;;;;;;;;;;5094227;28;20113;-81
2021/08/28 05:19:58;;;;;;;14.93;8.68;;;;;;;;;;5092082;28;20063;-80
2021/08/28 05:22:24;;;;;;;12.43;9.23;;;;;;;;;;5098093;28;20091;-80
2021/08/28 05:24:57;;;;;;;14.35;9.00;;;;;;;;;;5098488;28;20102;-80
2021/08/28 05:27:24;;;;;;;12.80;8.93;;;;;;;;;;5109115;28;20145;-79
2021/08/28 05:29:50;;;;;;;15.48;9.90;;;;;;;;;;5112365;28;20035;-80
2021/08/28 05:32:17;;;;;;;13.98;9.55;;;;;;;;;;5098783;28;20052;-80
2021/08/28 05:34:44;;;;;;;14.73;9.40;;;;;;;;;;5096638;28;20258;-80
2021/08/28 05:37:10;;;;;;;13.05;9.05;;;;;;;;;;5094440;28;20134;-79
2021/08/28 05:39:36;;;;;;;12.60;9.00;;;;;;;;;;5100679;28;20079;-79
2021/08/28 05:42:05;;;;;;;13.30;9.05;;;;;;;;;;5101463;28;20052;-80
2021/08/28 05:44:32;;;;;;;13.38;9.55;;;;;;;;;;5095866;28;20052;-79
2021/08/28 05:46:58;;;;;;;13.60;8.07;;;;;;;;;;5094945;28;20048;-79
2021/08/28 05:49:25;;;;;;;11.45;8.32;;;;;;;;;;5092219;28;20075;-79
2021/08/28 05:51:51;;;;;;;11.48;8.93;;;;;;;;;;5096004;28;20121;-79
2021/08/28 05:54:18;;;;;;;12.25;8.30;;;;;;;;;;5094385;28;20269;-79
2021/08/28 05:56:44;;;;;;;13.65;8.55;;;;;;;;;;5095182;28;20044;-80
2021/08/28 05:59:11;;;;;;;14.57;8.73;;;;;;;;;;5095640;28;20044;-79
2021/08/28 06:01:37;;;;;;;14.15;8.45;;;;;;;;;;5094522;28;20160;-79
2021/08/28 06:04:04;;;;;;;13.50;8.88;;;;;;;;;;5093255;28;20059;-79
2021/08/28 06:06:31;;;;;;;11.40;8.50;;;;;;;;;;5101599;28;20051;-78
2021/08/28 06:08:57;;;;;;;13.70;8.30;;;;;;;;;;5099795;28;20186;-79
2021/08/28 06:11:25;;;;;;;13.90;8.88;;;;;;;;;;5100746;28;20117;-79
2021/08/28 06:13:53;;;;;;;14.98;8.13;;;;;;;;;;5098310;28;20064;-79
2021/08/28 06:16:20;;;;;;;13.77;8.02;;;;;;;;;;5103120;28;20112;-79
2021/08/28 06:18:47;;;;;;;13.88;8.15;;;;;;;;;;5106861;28;20083;-79
2021/08/28 06:21:13;;;;;;;9.68;7.22;;;;;;;;;;5108104;28;20105;-80
2021/08/28 06:23:40;;;;;;;16.45;7.88;;;;;;;;;;5095362;28;20124;-80
2021/08/28 06:26:07;;;;;;;13.38;8.88;;;;;;;;;;5096240;28;20503;-79
2021/08/28 06:28:33;;;;;;;14.45;8.65;;;;;;;;;;5094885;28;20299;-79
2021/08/28 06:30:59;;;;;;;12.50;9.07;;;;;;;;;;5094850;28;20056;-79
2021/08/28 06:33:28;;;;;;;12.60;8.18;;;;;;;;;;5090878;28;20147;-79
2021/08/28 06:35:55;;;;;;;15.88;8.55;;;;;;;;;;5093821;28;20086;-79
2021/08/28 06:38:21;;;;;;;11.95;8.90;;;;;;;;;;5093157;28;20087;-80
2021/08/28 06:40:48;;;;;;;16.67;9.25;;;;;;;;;;5094156;28;20067;-80
2021/08/28 06:43:14;;;;;;;12.65;9.07;;;;;;;;;;5094286;28;20138;-80
2021/08/28 06:45:41;;;;;;;12.75;9.88;;;;;;;;;;5095564;28;20074;-81
2021/08/28 06:48:08;;;;;;;16.23;8.43;;;;;;;;;;5097959;28;20052;-81
2021/08/28 06:50:35;;;;;;;14.70;9.75;;;;;;;;;;5093686;28;20040;-80
2021/08/28 06:53:04;;;;;;;19.08;10.10;;;;;;;;;;5093176;28;20274;-80
2021/08/28 06:55:31;;;;;;;17.48;9.73;;;;;;;;;;5096538;28;20055;-81
2021/08/28 06:57:57;;;;;;;15.45;10.00;;;;;;;;;;5093560;28;20101;-81
2021/08/28 07:00:27;;;;;;;14.95;9.73;;;;;;;;;;5093834;28;20110;-80
2021/08/28 07:02:54;;;;;;;15.48;9.85;;;;;;;;;;5126365;27;20193;-80
2021/08/28 07:05:20;;;;;;;12.98;9.38;;;;;;;;;;5094133;28;20071;-80
2021/08/28 07:07:48;;;;;;;16.88;9.52;;;;;;;;;;5093326;28;20073;-80
2021/08/28 07:10:16;;;;;;;14.68;10.60;;;;;;;;;;5087753;28;20070;-79
2021/08/28 07:12:43;;;;;;;16.80;10.55;;;;;;;;;;5093032;28;20063;-80
2021/08/28 07:15:12;;;;;;;19.17;11.40;;;;;;;;;;5092009;28;20423;-80
2021/08/28 07:17:39;;;;;;;16.27;11.27;;;;;;;;;;5093395;28;20373;-79
2021/08/28 07:20:06;;;;;;;16.25;11.57;;;;;;;;;;5079416;28;20124;-80
2021/08/28 07:22:32;;;;;;;16.00;10.63;;;;;;;;;;5074025;28;20051;-80
2021/08/28 07:24:59;;;;;;;16.40;10.25;;;;;;;;;;5073275;28;20156;-80
2021/08/28 07:27:26;;;;;;;14.30;9.27;;;;;;;;;;5073177;28;20048;-80
2021/08/28 07:29:52;;;;;;;13.73;10.00;;;;;;;;;;5114586;27;20072;-80
2021/08/28 07:32:19;;;;;;;11.68;8.73;;;;;;;;;;5095124;28;20172;-79
2021/08/28 07:34:46;;;;;;;15.57;8.85;;;;;;;;;;5094141;28;20143;-79
2021/08/28 07:37:12;;;;;;;10.70;8.07;;;;;;;;;;5092782;28;20152;-80
2021/08/28 07:39:39;;;;;;;11.25;8.00;;;;;;;;;;5092625;28;20110;-78
2021/08/28 07:42:06;;;;;;;10.93;7.43;;;;;;;;;;5090909;28;20142;-80
2021/08/28 07:44:32;;;;;;;11.23;7.75;;;;;;;;;;5091929;28;20044;-80
2021/08/28 07:46:59;;;;;;;13.27;7.65;;;;;;;;;;5091767;28;20064;-80
2021/08/28 07:49:25;;;;;;;14.38;6.70;;;;;;;;;;5088275;28;20139;-80
2021/08/28 07:51:52;;;;;;;11.30;6.53;;;;;;;;;;5124721;27;20050;-80
2021/08/28 07:54:18;;;;;;;8.07;5.85;;;;;;;;;;5094172;28;20235;-80
2021/08/28 07:56:45;;;;;;;8.25;5.90;;;;;;;;;;5110967;28;20035;-79
2021/08/28 07:59:11;;;;;;;9.63;5.97;;;;;;;;;;5110876;28;20051;-81
2021/08/28 08:01:38;;;;;;;9.90;6.18;;;;;;;;;;5143689;27;20063;-81
2021/08/28 08:04:05;;;;;;;8.95;6.00;;;;;;;;;;5107956;28;20044;-81
2021/08/28 08:06:32;;;;;;;14.43;6.22;;;;;;;;;;5095985;28;20079;-82
2021/08/28 08:08:58;;;;;;;7.45;5.57;;;;;;;;;;5093660;28;20052;-82
2021/08/28 08:11:25;;;;;;;8.63;5.95;;;;;;;;;;5095544;28;20442;-81
2021/08/28 08:13:51;;;;;;;10.32;6.30;;;;;;;;;;5106518;28;20051;-84
2021/08/28 08:16:18;;;;;;;13.05;6.32;;;;;;;;;;5104231;28;20169;-83
2021/08/28 08:18:44;;;;;;;9.75;5.65;;;;;;;;;;5084167;28;20055;-83
2021/08/28 08:21:11;;;;;;;11.20;5.70;;;;;;;;;;5072689;28;20330;-83
2021/08/28 08:23:38;;;;;;;9.20;5.70;;;;;;;;;;5073627;28;20056;-83
2021/08/28 08:26:04;;;;;;;9.98;6.28;;;;;;;;;;5075150;28;20377;-84
2021/08/28 08:28:30;;;;;;;9.05;5.95;;;;;;;;;;5091124;28;20076;-84
2021/08/28 08:30:57;;;;;;;9.73;6.88;;;;;;;;;;5092720;28;20173;-84
2021/08/28 08:33:33;;;;;;;9.73;6.47;;;;;;;;;;5126012;27;20071;-85
2021/08/28 08:35:59;;;;;;;8.25;5.95;;;;;;;;;;5093387;28;20224;-85
2021/08/28 08:38:26;;;;;;;10.57;5.15;;;;;;;;;;5098151;28;20048;-85
2021/08/28 08:40:52;;;;;;;8.60;5.35;;;;;;;;;;5143016;27;20226;-85
2021/08/28 08:43:19;;;;;;;9.25;5.60;;;;;;;;;;5106689;28;20059;-85
2021/08/28 08:45:45;;;;;;;7.53;4.80;;;;;;;;;;5092206;28;20048;-84
2021/08/28 08:48:21;;;;;;;9.27;5.38;;;;;;;;;;5090992;28;20082;-85
2021/08/28 08:50:47;;;;;;;7.18;4.65;;;;;;;;;;5092640;28;20052;-84
2021/08/28 08:53:17;;;;;;;9.63;5.53;;;;;;;;;;5099380;28;20052;-84
2021/08/28 08:55:44;;;;;;;9.93;5.50;;;;;;;;;;5093835;28;20161;-85
2021/08/28 08:58:12;;;;;;;10.57;5.18;;;;;;;;;;5076873;28;20191;-84
2021/08/28 09:00:39;;;;;;;8.45;5.03;;;;;;;;;;5089788;28;20040;-84
2021/08/28 09:03:09;;;;;;;10.18;4.80;;;;;;;;;;5086283;28;20052;-85
2021/08/28 09:05:48;;;;;;;12.23;5.15;;;;;;;;;;5069699;28;20070;-84
2021/08/28 09:08:15;;;;;;;8.68;4.40;;;;;;;;;;5070924;28;20066;-84
2021/08/28 09:10:41;;;;;;;9.23;4.88;;;;;;;;;;5071315;28;20413;-84
2021/08/28 09:13:13;;;;;;;8.02;5.05;;;;;;;;;;5088148;28;20052;-84
2021/08/28 09:15:42;;;;;;;9.55;4.88;;;;;;;;;;5074642;28;20132;-84
2021/08/28 09:18:09;;;;;;;7.55;4.57;;;;;;;;;;5074268;28;20048;-85
2021/08/28 09:20:35;;;;;;;7.00;4.00;;;;;;;;;;5075115;28;20398;-84
2021/08/28 09:23:06;;;;;;;5.32;3.75;;;;;;;;;;5071491;28;20109;-84
2021/08/28 09:25:44;;;;;;;7.47;4.72;;;;;;;;;;5092158;28;20048;-84
2021/08/28 09:28:11;;;;;;;5.25;3.67;;;;;;;;;;5100369;28;20227;-85
2021/08/28 09:30:45;;;;;;;6.13;3.28;;;;;;;;;;5108501;28;20075;-84
2021/08/28 09:33:14;;;;;;;6.18;3.80;;;;;;;;;;5089262;28;20114;-85
2021/08/28 09:35:42;;;;;;;5.90;3.50;;;;;;;;;;5084947;28;20284;-85
2021/08/28 09:38:13;;;;;;;3.35;2.83;;;;;;;;;;5071123;28;20056;-85
2021/08/28 09:40:41;;;;;;;5.72;2.47;;;;;;;;;;5069703;28;20049;-85
2021/08/28 09:43:15;;;;;;;3.08;2.15;;;;;;;;;;5101534;28;20135;-85
2021/08/28 09:45:42;;;;;;;3.05;2.30;;;;;;;;;;5074973;28;20044;-84
2021/08/28 09:48:10;;;;;;;2.88;2.10;;;;;;;;;;5088017;28;20060;-84
2021/08/28 09:50:38;;;;;;;2.22;1.80;;;;;;;;;;5091592;28;20050;-84
2021/08/28 09:53:17;;;;;;;3.03;1.60;;;;;;;;;;5083087;28;20049;-85
2021/08/28 09:55:43;;;;;;;2.53;1.20;;;;;;;;;;5075966;28;20071;-84
2021/08/28 09:58:11;;;;;;;3.20;1.60;;;;;;;;;;5074739;28;20071;-85
2021/08/28 10:00:42;;;;;;;2.50;1.60;;;;;;;;;;5070757;28;20110;-83
2021/08/28 10:03:08;;;;;;;2.22;1.50;;;;;;;;;;5088851;28;20090;-82
2021/08/28 10:05:36;;;;;;;5.13;2.28;;;;;;;;;;5069635;28;20304;-83
2021/08/28 10:08:06;;;;;;;2.80;2.13;;;;;;;;;;5070858;28;20322;-81
2021/08/28 10:10:34;;;;;;;2.40;2.17;;;;;;;;;;5073419;28;20049;-82
2021/08/28 10:13:02;;;;;;;2.67;1.98;;;;;;;;;;5116060;28;20044;-82
2021/08/28 10:15:32;;;;;;;3.63;2.83;;;;;;;;;;5106784;28;20056;-82
2021/08/28 10:17:59;;;;;;;5.10;4.43;;;;;;;;;;5109479;28;20078;-82
2021/08/28 10:20:27;;;;;;;4.65;3.00;;;;;;;;;;5105771;28;20108;-81
2021/08/28 10:23:02;;;;;;;2.53;2.00;;;;;;;;;;5081939;28;20103;-82
2021/08/28 10:25:29;;;;;;;2.80;2.40;;;;;;;;;;5074566;28;20045;-81
2021/08/28 10:27:56;;;;;;;4.20;2.78;;;;;;;;;;5095514;28;20345;-84
2021/08/28 10:30:24;;;;;;;4.10;3.30;;;;;;;;;;5100394;28;20060;-85
2021/08/28 10:32:51;;;;;;;2.92;2.53;;;;;;;;;;5094513;28;20135;-86
2021/08/28 10:35:19;;;;;;;5.93;1.88;;;;;;;;;;5093827;28;20506;-86
2021/08/28 10:37:45;;;;;;;4.13;2.03;;;;;;;;;;5094582;28;20403;-87
2021/08/28 10:40:25;;;;;;;1.77;1.42;;;;;;;;;;5094304;28;20043;-86
2021/08/28 10:42:57;;;;;;;4.50;1.42;;;;;;;;;;5093955;28;20071;-86
2021/08/28 10:45:33;;;;;;;1.30;1.20;;;;;;;;;;5093213;28;20393;-86
2021/08/28 10:48:02;;;;;;;3.25;1.98;;;;;;;;;;5091349;28;20056;-87
2021/08/28 10:50:33;;;;;;;1.40;1.10;;;;;;;;;;5087804;28;20079;-87
2021/08/28 10:53:00;;;;;;;3.38;1.38;;;;;;;;;;5122662;27;20074;-88
2021/08/28 10:55:36;;;;;;;1.83;1.15;;;;;;;;;;5083538;28;20048;-86
2021/08/28 10:58:17;;;;;;;1.88;1.30;;;;;;;;;;5094904;28;20048;-86
2021/08/28 11:00:43;;;;;;;4.47;1.67;;;;;;;;;;5075407;28;20048;-87
2021/08/28 11:03:29;;;;;;;3.53;2.00;;;;;;;;;;5073677;28;20052;-86
2021/08/28 11:06:15;;;;;;;2.77;2.00;;;;;;;;;;5081362;28;20044;-87
2021/08/28 11:08:55;;;;;;;6.03;1.80;;;;;;;;;;5091707;28;20470;-87
2021/08/28 11:11:39;;;;;;;3.88;2.47;;;;;;;;;;5093220;28;20049;-88
2021/08/28 11:14:07;;;;;;;4.50;2.20;;;;;;;;;;5111188;28;20075;-87
2021/08/28 11:16:43;;;;;;;2.38;2.08;;;;;;;;;;5111368;28;20049;-87
2021/08/28 11:19:30;;;;;;;9.02;4.28;;;;;;;;;;5124472;28;20117;-88
2021/08/28 11:21:57;;;;;;;34.28;15.52;;;;;;;;;;5093875;28;20070;-87
2021/08/28 11:24:27;;;;;;;3.75;2.78;;;;;;;;;;5095767;28;20055;-86
2021/08/28 11:26:55;;;;;;;2.75;2.45;;;;;;;;;;5094722;28;20074;-86
2021/08/28 11:29:32;;;;;;;3.45;2.25;;;;;;;;;;5104456;28;20325;-86
2021/08/28 11:32:14;;;;;;;2.05;1.95;;;;;;;;;;5103213;28;20224;-86
2021/08/28 11:34:57;;;;;;;2.92;2.03;;;;;;;;;;5093200;28;20051;-87
2021/08/28 11:37:30;;;;;;;3.92;2.22;;;;;;;;;;5093309;28;20108;-87
2021/08/28 11:39:58;;;;;;;3.10;2.45;;;;;;;;;;5115782;28;20097;-87
2021/08/28 11:42:28;;;;;;;3.88;2.38;;;;;;;;;;5105579;28;20048;-87
2021/08/28 11:44:56;;;;;;;4.00;2.70;;;;;;;;;;5096381;28;20108;-86
2021/08/28 11:47:23;;;;;;;4.15;2.55;;;;;;;;;;5106911;28;20063;-86
2021/08/28 11:49:57;;;;;;;4.43;2.42;;;;;;;;;;5109210;28;20505;-83
2021/08/28 11:52:25;;;;;;;4.05;2.42;;;;;;;;;;5107701;28;20046;-82
2021/08/28 11:54:54;;;;;;;5.65;2.30;;;;;;;;;;5104047;28;20058;-82
2021/08/28 11:57:21;;;;;;;3.28;2.70;;;;;;;;;;5101933;28;20094;-82
2021/08/28 11:59:54;;;;;;;4.55;2.47;;;;;;;;;;5110060;28;20154;-83
2021/08/28 12:02:26;;;;;;;2.50;2.30;;;;;;;;;;5108276;28;20151;-84
2021/08/28 12:04:54;;;;;;;4.35;2.90;;;;;;;;;;5111053;28;20047;-84
2021/08/28 12:07:24;;;;;;;5.88;3.20;;;;;;;;;;5112352;28;20051;-83
2021/08/28 12:09:50;;;;;;;5.63;3.13;;;;;;;;;;5125743;27;20184;-82
2021/08/28 12:12:22;;;;;;;5.55;3.92;;;;;;;;;;5087680;28;20044;-82
2021/08/28 12:14:52;;;;;;;9.35;4.13;;;;;;;;;;5091458;28;20291;-83
2021/08/28 12:17:26;;;;;;;7.05;4.03;;;;;;;;;;5089382;28;20070;-84
2021/08/28 12:20:01;;;;;;;;;;;;;;;;;;5089917;28;20048;-83
2021/08/28 12:22:28;;;;;;;6.38;3.80;;;;;;;;;;5071041;28;19958;-84
2021/08/28 12:24:56;;;;;;;5.85;4.00;;;;;;;;;;5072284;28;20076;-84
2021/08/28 12:27:23;;;;;;;7.25;3.63;;;;;;;;;;5070213;28;20063;-84
2021/08/28 12:29:56;;;;;;;5.70;4.28;;;;;;;;;;5077031;28;20080;-84
2021/08/28 12:32:24;;;;;;;8.68;4.10;;;;;;;;;;5087598;28;20041;-84
2021/08/28 12:34:55;;;;;;;7.97;4.43;;;;;;;;;;5087926;28;20064;-83
2021/08/28 12:37:23;;;;;;;5.78;3.63;;;;;;;;;;5089216;28;20068;-82
2021/08/28 12:39:51;;;;;;;7.43;3.95;;;;;;;;;;5090712;28;20075;-82
2021/08/28 12:42:21;;;;;;;4.97;3.97;;;;;;;;;;5098224;28;20134;-82
2021/08/28 12:44:52;;;;;;;6.85;4.07;;;;;;;;;;5094667;28;20032;-82
2021/08/28 12:47:23;;;;;;;3.95;3.03;;;;;;;;;;5103328;28;20048;-81
2021/08/28 12:49:53;;;;;;;4.78;3.05;;;;;;;;;;5093149;28;20451;-82
2021/08/28 12:52:20;;;;;;;4.45;2.80;;;;;;;;;;5088589;28;20288;-81
2021/08/28 12:54:58;;;;;;;3.38;2.53;;;;;;;;;;5083676;28;20140;-81
2021/08/28 12:57:27;;;;;;;3.42;2.25;;;;;;;;;;5086027;28;20071;-81
2021/08/28 12:59:54;;;;;;;5.72;2.63;;;;;;;;;;5099657;28;20242;-81
2021/08/28 13:02:22;;;;;;;7.30;4.25;;;;;;;;;;5092220;28;20138;-81
2021/08/28 13:04:50;;;;;;;4.93;2.70;;;;;;;;;;5080938;28;20044;-82
2021/08/28 13:07:18;;;;;;;5.97;2.80;;;;;;;;;;5072778;28;20090;-82
2021/08/28 13:10:07;;;;;;;5.95;2.60;;;;;;;;;;5085795;28;20113;-82
2021/08/28 13:12:57;;;;;;;5.45;2.67;;;;;;;;;;5085065;28;20059;-82
2021/08/28 13:15:24;;;;;;;6.97;3.17;;;;;;;;;;5094474;28;20401;-82
2021/08/28 13:18:01;;;;;;;6.25;3.40;;;;;;;;;;5095798;28;20119;-82
2021/08/28 13:20:28;;;;;;;12.55;3.00;;;;;;;;;;5095247;28;20416;-82
2021/08/28 13:22:56;;;;;;;3.50;2.55;;;;;;;;;;5088414;28;20098;-81
2021/08/28 13:25:25;;;;;;;5.88;2.88;;;;;;;;;;5069600;28;20187;-82
2021/08/28 13:27:56;;;;;;;4.72;3.40;;;;;;;;;;5068861;28;20083;-82
2021/08/28 13:30:27;;;;;;;4.85;3.28;;;;;;;;;;5069907;28;20040;-82
2021/08/28 13:32:55;;;;;;;4.93;3.20;;;;;;;;;;5068376;28;20254;-82
2021/08/28 13:35:22;;;;;;;7.65;3.53;;;;;;;;;;5076263;28;20050;-82
2021/08/28 13:37:48;;;;;;;4.90;3.28;;;;;;;;;;5090142;28;20143;-82
2021/08/28 13:40:15;;;;;;;6.03;2.97;;;;;;;;;;5091520;28;20047;-81
2021/08/28 13:42:44;;;;;;;6.47;3.50;;;;;;;;;;5092728;28;20083;-81
2021/08/28 13:45:10;;;;;;;4.75;3.33;;;;;;;;;;5091702;28;20149;-82
2021/08/28 13:47:36;;;;;;;6.07;2.83;;;;;;;;;;5092362;28;20476;-82
2021/08/28 13:50:13;;;;;;;5.50;2.70;;;;;;;;;;5093253;28;20155;-81
2021/08/28 13:52:39;;;;;;;4.60;3.17;;;;;;;;;;5128577;27;20048;-81
2021/08/28 13:55:07;;;;;;;4.72;2.97;;;;;;;;;;5092161;28;20070;-81
2021/08/28 13:57:33;;;;;;;8.38;3.70;;;;;;;;;;5087464;28;20143;-81
2021/08/28 14:00:04;;;;;;;5.32;2.60;;;;;;;;;;5071705;28;20057;-82
2021/08/28 14:02:31;;;;;;;5.28;3.00;;;;;;;;;;5072190;28;20072;-82
2021/08/28 14:04:57;;;;;;;4.30;3.15;;;;;;;;;;5070352;28;20086;-82
2021/08/28 14:07:29;;;;;;;6.43;3.78;;;;;;;;;;5080070;28;20079;-82
2021/08/28 14:09:56;;;;;;;3.38;2.70;;;;;;;;;;5084279;28;20059;-82
2021/08/28 14:12:23;;;;;;;5.97;2.90;;;;;;;;;;5093118;28;20200;-83
2021/08/28 14:14:49;;;;;;;6.90;3.42;;;;;;;;;;5096211;28;20045;-81
2021/08/28 14:17:16;;;;;;;5.90;3.50;;;;;;;;;;5101789;28;20047;-81
2021/08/28 14:19:43;;;;;;;5.95;3.70;;;;;;;;;;5110523;28;20174;-82
2021/08/28 14:22:09;;;;;;;6.28;3.40;;;;;;;;;;5107330;28;20247;-82
2021/08/28 14:24:36;;;;;;;6.90;3.15;;;;;;;;;;5092507;28;20063;-82
2021/08/28 14:27:02;;;;;;;3.45;2.53;;;;;;;;;;5092379;28;20044;-82
2021/08/28 14:29:31;;;;;;;6.22;3.70;;;;;;;;;;5090013;28;20198;-82
2021/08/28 14:32:01;;;;;;;7.55;4.68;;;;;;;;;;5090932;28;20044;-82
2021/08/28 14:34:29;;;;;;;7.68;2.70;;;;;;;;;;5087366;28;20067;-81
2021/08/28 14:36:56;;;;;;;7.85;3.22;;;;;;;;;;5119229;27;20269;-82
2021/08/28 14:39:23;;;;;;;6.60;2.63;;;;;;;;;;5105748;28;20256;-81
2021/08/28 14:42:05;;;;;;;5.55;2.28;;;;;;;;;;5088444;28;20266;-82
2021/08/28 14:44:34;;;;;;;6.05;2.70;;;;;;;;;;5101995;28;20234;-81